sensor_id;sensor_type;location;lat;lon;timestamp;P1;durP1;ratioP1;P2;durP2;ratioP2
51174;SDS011;37240;50.104;20.010;2023-04-24T00:02:32;20.92;;;9.10;;
51174;SDS011;37240;50.104;20.010;2023-04-24T00:07:33;20.75;;;9.68;;
51174;SDS011;37240;50.104;20.010;2023-04-24T00:12:34;19.02;;;8.80;;
51174;SDS011;37240;50.104;20.010;2023-04-24T00:17:35;18.50;;;8.88;;
51174;SDS011;37240;50.104;20.010;2023-04-24T00:22:35;18.25;;;9.35;;
51174;SDS011;37240;50.104;20.010;2023-04-24T00:27:36;16.38;;;8.98;;
51174;SDS011;37240;50.104;20.010;2023-04-24T00:32:37;17.13;;;8.85;;
51174;SDS011;37240;50.104;20.010;2023-04-24T00:37:37;21.25;;;9.90;;
51174;SDS011;37240;50.104;20.010;2023-04-24T00:42:38;16.27;;;9.02;;
51174;SDS011;37240;50.104;20.010;2023-04-24T00:47:40;16.35;;;9.63;;
51174;SDS011;37240;50.104;20.010;2023-04-24T00:52:41;20.40;;;10.40;;
51174;SDS011;37240;50.104;20.010;2023-04-24T00:57:42;16.08;;;10.40;;
51174;SDS011;37240;50.104;20.010;2023-04-24T01:02:44;25.55;;;10.32;;
51174;SDS011;37240;50.104;20.010;2023-04-24T01:07:45;16.67;;;9.50;;
51174;SDS011;37240;50.104;20.010;2023-04-24T01:12:46;19.67;;;10.00;;
51174;SDS011;37240;50.104;20.010;2023-04-24T01:17:47;19.45;;;9.90;;
51174;SDS011;37240;50.104;20.010;2023-04-24T01:22:47;21.90;;;10.18;;
51174;SDS011;37240;50.104;20.010;2023-04-24T01:27:48;23.35;;;10.50;;
51174;SDS011;37240;50.104;20.010;2023-04-24T01:32:48;23.15;;;11.45;;
51174;SDS011;37240;50.104;20.010;2023-04-24T01:37:49;18.45;;;9.70;;
51174;SDS011;37240;50.104;20.010;2023-04-24T01:42:50;19.30;;;10.50;;
51174;SDS011;37240;50.104;20.010;2023-04-24T01:47:51;21.33;;;9.82;;
51174;SDS011;37240;50.104;20.010;2023-04-24T01:52:52;16.45;;;10.00;;
51174;SDS011;37240;50.104;20.010;2023-04-24T01:57:52;23.20;;;9.48;;
51174;SDS011;37240;50.104;20.010;2023-04-24T02:02:55;16.05;;;9.45;;
51174;SDS011;37240;50.104;20.010;2023-04-24T02:07:56;14.10;;;7.55;;
51174;SDS011;37240;50.104;20.010;2023-04-24T02:12:57;16.52;;;7.63;;
51174;SDS011;37240;50.104;20.010;2023-04-24T02:17:57;11.02;;;6.53;;
51174;SDS011;37240;50.104;20.010;2023-04-24T02:22:58;22.85;;;7.93;;
51174;SDS011;37240;50.104;20.010;2023-04-24T02:27:59;13.90;;;6.65;;
51174;SDS011;37240;50.104;20.010;2023-04-24T02:32:59;13.40;;;6.40;;
51174;SDS011;37240;50.104;20.010;2023-04-24T02:38:00;13.10;;;7.20;;
51174;SDS011;37240;50.104;20.010;2023-04-24T02:43:00;10.20;;;6.28;;
51174;SDS011;37240;50.104;20.010;2023-04-24T02:48:01;16.35;;;9.02;;
51174;SDS011;37240;50.104;20.010;2023-04-24T02:53:01;17.25;;;8.43;;
51174;SDS011;37240;50.104;20.010;2023-04-24T02:58:02;20.23;;;8.90;;
51174;SDS011;37240;50.104;20.010;2023-04-24T03:03:02;15.30;;;8.25;;
51174;SDS011;37240;50.104;20.010;2023-04-24T03:08:03;17.98;;;9.40;;
51174;SDS011;37240;50.104;20.010;2023-04-24T03:13:03;21.02;;;9.32;;
51174;SDS011;37240;50.104;20.010;2023-04-24T03:18:04;22.58;;;9.63;;
51174;SDS011;37240;50.104;20.010;2023-04-24T03:23:04;16.42;;;8.93;;
51174;SDS011;37240;50.104;20.010;2023-04-24T03:28:05;17.67;;;9.30;;
51174;SDS011;37240;50.104;20.010;2023-04-24T03:33:05;18.65;;;9.68;;
51174;SDS011;37240;50.104;20.010;2023-04-24T03:38:06;16.67;;;10.05;;
51174;SDS011;37240;50.104;20.010;2023-04-24T03:43:07;17.65;;;8.48;;
51174;SDS011;37240;50.104;20.010;2023-04-24T03:48:07;16.90;;;9.07;;
51174;SDS011;37240;50.104;20.010;2023-04-24T03:53:08;13.55;;;7.75;;
51174;SDS011;37240;50.104;20.010;2023-04-24T03:58:08;12.00;;;7.30;;
51174;SDS011;37240;50.104;20.010;2023-04-24T04:03:09;16.77;;;8.07;;
51174;SDS011;37240;50.104;20.010;2023-04-24T04:08:09;15.40;;;8.50;;
51174;SDS011;37240;50.104;20.010;2023-04-24T04:13:10;13.82;;;7.78;;
51174;SDS011;37240;50.104;20.010;2023-04-24T04:18:10;19.48;;;8.98;;
51174;SDS011;37240;50.104;20.010;2023-04-24T04:23:11;19.10;;;7.38;;
51174;SDS011;37240;50.104;20.010;2023-04-24T04:28:11;14.07;;;7.63;;
51174;SDS011;37240;50.104;20.010;2023-04-24T04:33:12;21.15;;;8.10;;
51174;SDS011;37240;50.104;20.010;2023-04-24T04:38:13;16.23;;;7.75;;
51174;SDS011;37240;50.104;20.010;2023-04-24T04:43:13;11.13;;;7.32;;
51174;SDS011;37240;50.104;20.010;2023-04-24T04:48:14;14.18;;;6.93;;
51174;SDS011;37240;50.104;20.010;2023-04-24T04:53:14;13.88;;;6.50;;
51174;SDS011;37240;50.104;20.010;2023-04-24T04:58:15;14.10;;;7.20;;
51174;SDS011;37240;50.104;20.010;2023-04-24T05:03:16;16.05;;;6.93;;
51174;SDS011;37240;50.104;20.010;2023-04-24T05:08:16;14.65;;;6.15;;
51174;SDS011;37240;50.104;20.010;2023-04-24T05:13:17;17.73;;;7.88;;
51174;SDS011;37240;50.104;20.010;2023-04-24T05:18:17;10.43;;;6.35;;
51174;SDS011;37240;50.104;20.010;2023-04-24T05:23:18;10.77;;;5.63;;
51174;SDS011;37240;50.104;20.010;2023-04-24T05:28:18;14.52;;;5.65;;
51174;SDS011;37240;50.104;20.010;2023-04-24T05:33:19;27.25;;;11.13;;
51174;SDS011;37240;50.104;20.010;2023-04-24T05:38:19;24.63;;;9.75;;
51174;SDS011;37240;50.104;20.010;2023-04-24T05:43:20;25.02;;;7.93;;
51174;SDS011;37240;50.104;20.010;2023-04-24T05:48:20;25.67;;;8.07;;
51174;SDS011;37240;50.104;20.010;2023-04-24T05:53:21;10.90;;;6.38;;
51174;SDS011;37240;50.104;20.010;2023-04-24T05:58:21;17.05;;;6.43;;
51174;SDS011;37240;50.104;20.010;2023-04-24T06:03:22;23.75;;;7.30;;
51174;SDS011;37240;50.104;20.010;2023-04-24T06:08:22;14.55;;;6.03;;
51174;SDS011;37240;50.104;20.010;2023-04-24T06:13:23;12.60;;;6.80;;
51174;SDS011;37240;50.104;20.010;2023-04-24T06:18:24;18.13;;;6.57;;
51174;SDS011;37240;50.104;20.010;2023-04-24T06:23:24;14.45;;;6.03;;
51174;SDS011;37240;50.104;20.010;2023-04-24T06:28:25;17.65;;;6.22;;
51174;SDS011;37240;50.104;20.010;2023-04-24T06:33:25;13.73;;;5.30;;
51174;SDS011;37240;50.104;20.010;2023-04-24T06:38:26;16.90;;;6.03;;
51174;SDS011;37240;50.104;20.010;2023-04-24T06:43:26;22.23;;;7.18;;
51174;SDS011;37240;50.104;20.010;2023-04-24T06:48:27;25.40;;;8.50;;
51174;SDS011;37240;50.104;20.010;2023-04-24T06:53:27;38.15;;;8.65;;
51174;SDS011;37240;50.104;20.010;2023-04-24T06:58:28;48.38;;;9.35;;
51174;SDS011;37240;50.104;20.010;2023-04-24T07:03:30;20.25;;;6.70;;
51174;SDS011;37240;50.104;20.010;2023-04-24T07:08:31;30.13;;;6.13;;
51174;SDS011;37240;50.104;20.010;2023-04-24T07:13:31;19.65;;;5.53;;
51174;SDS011;37240;50.104;20.010;2023-04-24T07:18:32;12.13;;;4.55;;
51174;SDS011;37240;50.104;20.010;2023-04-24T07:23:33;13.43;;;4.15;;
51174;SDS011;37240;50.104;20.010;2023-04-24T07:28:33;8.18;;;3.53;;
51174;SDS011;37240;50.104;20.010;2023-04-24T07:33:34;4.22;;;3.60;;
51174;SDS011;37240;50.104;20.010;2023-04-24T07:38:34;4.55;;;3.85;;
51174;SDS011;37240;50.104;20.010;2023-04-24T07:43:35;10.38;;;3.47;;
51174;SDS011;37240;50.104;20.010;2023-04-24T07:48:36;7.47;;;3.97;;
51174;SDS011;37240;50.104;20.010;2023-04-24T07:53:36;5.05;;;3.60;;
51174;SDS011;37240;50.104;20.010;2023-04-24T07:58:37;4.28;;;3.72;;
51174;SDS011;37240;50.104;20.010;2023-04-24T08:03:37;5.80;;;3.70;;
51174;SDS011;37240;50.104;20.010;2023-04-24T08:08:38;5.20;;;3.72;;
51174;SDS011;37240;50.104;20.010;2023-04-24T08:13:38;7.40;;;3.58;;
51174;SDS011;37240;50.104;20.010;2023-04-24T08:18:39;6.93;;;3.28;;
51174;SDS011;37240;50.104;20.010;2023-04-24T08:23:39;14.50;;;4.18;;
51174;SDS011;37240;50.104;20.010;2023-04-24T08:28:40;7.88;;;3.67;;
51174;SDS011;37240;50.104;20.010;2023-04-24T08:33:40;3.63;;;3.05;;
51174;SDS011;37240;50.104;20.010;2023-04-24T08:38:41;7.82;;;3.42;;
51174;SDS011;37240;50.104;20.010;2023-04-24T08:43:42;4.28;;;3.08;;
51174;SDS011;37240;50.104;20.010;2023-04-24T08:48:43;3.15;;;2.70;;
51174;SDS011;37240;50.104;20.010;2023-04-24T08:53:45;5.72;;;3.30;;
51174;SDS011;37240;50.104;20.010;2023-04-24T08:58:46;12.15;;;2.80;;
51174;SDS011;37240;50.104;20.010;2023-04-24T09:03:48;7.28;;;3.03;;
51174;SDS011;37240;50.104;20.010;2023-04-24T09:08:49;3.65;;;2.67;;
51174;SDS011;37240;50.104;20.010;2023-04-24T09:13:53;4.68;;;2.85;;
51174;SDS011;37240;50.104;20.010;2023-04-24T09:18:54;4.05;;;2.78;;
51174;SDS011;37240;50.104;20.010;2023-04-24T09:24:02;5.78;;;2.83;;
51174;SDS011;37240;50.104;20.010;2023-04-24T09:29:05;4.25;;;2.63;;
51174;SDS011;37240;50.104;20.010;2023-04-24T09:34:05;3.70;;;3.17;;
51174;SDS011;37240;50.104;20.010;2023-04-24T09:39:06;5.05;;;3.10;;
51174;SDS011;37240;50.104;20.010;2023-04-24T09:44:12;8.02;;;2.83;;
51174;SDS011;37240;50.104;20.010;2023-04-24T09:49:21;6.22;;;3.20;;
51174;SDS011;37240;50.104;20.010;2023-04-24T09:54:23;8.05;;;2.83;;
51174;SDS011;37240;50.104;20.010;2023-04-24T09:59:24;9.38;;;3.45;;
51174;SDS011;37240;50.104;20.010;2023-04-24T10:04:28;5.00;;;3.20;;
51174;SDS011;37240;50.104;20.010;2023-04-24T10:09:29;9.93;;;3.10;;
51174;SDS011;37240;50.104;20.010;2023-04-24T10:14:29;4.30;;;2.75;;
51174;SDS011;37240;50.104;20.010;2023-04-24T10:19:30;3.58;;;3.25;;
51174;SDS011;37240;50.104;20.010;2023-04-24T10:24:33;2.97;;;2.67;;
51174;SDS011;37240;50.104;20.010;2023-04-24T10:29:33;21.65;;;2.85;;
51174;SDS011;37240;50.104;20.010;2023-04-24T10:34:37;4.15;;;2.85;;
51174;SDS011;37240;50.104;20.010;2023-04-24T10:39:37;3.85;;;2.92;;
51174;SDS011;37240;50.104;20.010;2023-04-24T10:44:39;3.30;;;3.00;;
51174;SDS011;37240;50.104;20.010;2023-04-24T10:49:40;12.05;;;3.20;;
51174;SDS011;37240;50.104;20.010;2023-04-24T10:54:44;2.97;;;2.78;;
51174;SDS011;37240;50.104;20.010;2023-04-24T11:04:47;5.50;;;2.83;;
51174;SDS011;37240;50.104;20.010;2023-04-24T11:09:58;5.05;;;2.90;;
51174;SDS011;37240;50.104;20.010;2023-04-24T11:15:00;13.02;;;3.17;;
51174;SDS011;37240;50.104;20.010;2023-04-24T11:20:02;3.22;;;2.45;;
51174;SDS011;37240;50.104;20.010;2023-04-24T11:25:10;3.80;;;3.38;;
51174;SDS011;37240;50.104;20.010;2023-04-24T11:30:11;3.05;;;2.80;;
51174;SDS011;37240;50.104;20.010;2023-04-24T11:35:19;5.32;;;3.45;;
51174;SDS011;37240;50.104;20.010;2023-04-24T11:40:21;9.75;;;2.90;;
51174;SDS011;37240;50.104;20.010;2023-04-24T11:45:23;5.72;;;3.22;;
51174;SDS011;37240;50.104;20.010;2023-04-24T11:50:26;24.60;;;11.43;;
51174;SDS011;37240;50.104;20.010;2023-04-24T11:55:27;5.45;;;3.33;;
51174;SDS011;37240;50.104;20.010;2023-04-24T12:00:29;5.30;;;3.35;;
51174;SDS011;37240;50.104;20.010;2023-04-24T12:05:31;7.78;;;2.83;;
51174;SDS011;37240;50.104;20.010;2023-04-24T12:10:32;12.68;;;3.70;;
51174;SDS011;37240;50.104;20.010;2023-04-24T12:15:33;8.27;;;3.17;;
51174;SDS011;37240;50.104;20.010;2023-04-24T12:20:35;3.45;;;2.80;;
51174;SDS011;37240;50.104;20.010;2023-04-24T12:25:35;4.78;;;3.38;;
51174;SDS011;37240;50.104;20.010;2023-04-24T12:30:40;3.90;;;2.80;;
51174;SDS011;37240;50.104;20.010;2023-04-24T12:35:42;7.13;;;2.60;;
51174;SDS011;37240;50.104;20.010;2023-04-24T12:40:43;5.00;;;2.67;;
51174;SDS011;37240;50.104;20.010;2023-04-24T12:45:43;4.40;;;3.33;;
51174;SDS011;37240;50.104;20.010;2023-04-24T12:50:44;10.38;;;2.95;;
51174;SDS011;37240;50.104;20.010;2023-04-24T12:55:45;5.28;;;2.88;;
51174;SDS011;37240;50.104;20.010;2023-04-24T13:00:46;2.75;;;2.53;;
51174;SDS011;37240;50.104;20.010;2023-04-24T13:05:47;6.07;;;2.97;;
51174;SDS011;37240;50.104;20.010;2023-04-24T13:10:47;10.35;;;4.63;;
51174;SDS011;37240;50.104;20.010;2023-04-24T13:15:48;31.55;;;5.30;;
51174;SDS011;37240;50.104;20.010;2023-04-24T13:20:49;65.47;;;7.60;;
51174;SDS011;37240;50.104;20.010;2023-04-24T13:25:49;14.20;;;4.82;;
51174;SDS011;37240;50.104;20.010;2023-04-24T13:30:50;13.15;;;3.88;;
51174;SDS011;37240;50.104;20.010;2023-04-24T13:35:51;17.27;;;4.95;;
51174;SDS011;37240;50.104;20.010;2023-04-24T13:40:51;13.38;;;4.90;;
51174;SDS011;37240;50.104;20.010;2023-04-24T13:45:52;3.75;;;3.42;;
51174;SDS011;37240;50.104;20.010;2023-04-24T13:50:52;9.80;;;4.43;;
51174;SDS011;37240;50.104;20.010;2023-04-24T13:55:53;12.95;;;4.03;;
51174;SDS011;37240;50.104;20.010;2023-04-24T14:00:54;6.70;;;2.70;;
51174;SDS011;37240;50.104;20.010;2023-04-24T14:05:55;11.57;;;3.53;;
51174;SDS011;37240;50.104;20.010;2023-04-24T14:10:55;4.70;;;3.13;;
51174;SDS011;37240;50.104;20.010;2023-04-24T14:15:56;14.90;;;2.90;;
51174;SDS011;37240;50.104;20.010;2023-04-24T14:20:56;3.95;;;2.50;;
51174;SDS011;37240;50.104;20.010;2023-04-24T14:25:57;7.82;;;3.13;;
51174;SDS011;37240;50.104;20.010;2023-04-24T14:30:58;8.23;;;2.58;;
51174;SDS011;37240;50.104;20.010;2023-04-24T14:35:59;8.10;;;2.92;;
51174;SDS011;37240;50.104;20.010;2023-04-24T14:40:59;2.65;;;2.45;;
51174;SDS011;37240;50.104;20.010;2023-04-24T14:46:00;2.92;;;2.40;;
51174;SDS011;37240;50.104;20.010;2023-04-24T14:51:00;9.05;;;2.80;;
51174;SDS011;37240;50.104;20.010;2023-04-24T14:56:01;2.90;;;2.60;;
51174;SDS011;37240;50.104;20.010;2023-04-24T15:01:01;3.10;;;2.90;;
51174;SDS011;37240;50.104;20.010;2023-04-24T15:06:02;5.20;;;2.30;;
51174;SDS011;37240;50.104;20.010;2023-04-24T15:11:03;3.75;;;2.45;;
51174;SDS011;37240;50.104;20.010;2023-04-24T15:16:04;1.52;;;1.42;;
51174;SDS011;37240;50.104;20.010;2023-04-24T15:21:05;2.00;;;1.45;;
51174;SDS011;37240;50.104;20.010;2023-04-24T15:26:06;4.53;;;1.92;;
51174;SDS011;37240;50.104;20.010;2023-04-24T15:31:06;6.60;;;2.50;;
51174;SDS011;37240;50.104;20.010;2023-04-24T15:36:07;2.45;;;2.08;;
51174;SDS011;37240;50.104;20.010;2023-04-24T15:41:07;4.63;;;2.33;;
51174;SDS011;37240;50.104;20.010;2023-04-24T15:46:08;2.63;;;2.42;;
51174;SDS011;37240;50.104;20.010;2023-04-24T15:51:09;4.88;;;3.08;;
51174;SDS011;37240;50.104;20.010;2023-04-24T15:56:10;85.68;;;34.38;;
51174;SDS011;37240;50.104;20.010;2023-04-24T16:01:11;41.72;;;18.00;;
51174;SDS011;37240;50.104;20.010;2023-04-24T16:06:11;17.92;;;8.50;;
51174;SDS011;37240;50.104;20.010;2023-04-24T16:11:12;12.27;;;6.60;;
51174;SDS011;37240;50.104;20.010;2023-04-24T16:16:12;10.60;;;5.28;;
51174;SDS011;37240;50.104;20.010;2023-04-24T16:21:13;4.30;;;2.97;;
51174;SDS011;37240;50.104;20.010;2023-04-24T16:26:13;4.00;;;2.88;;
51174;SDS011;37240;50.104;20.010;2023-04-24T16:31:14;3.25;;;2.95;;
51174;SDS011;37240;50.104;20.010;2023-04-24T16:36:14;3.00;;;2.80;;
51174;SDS011;37240;50.104;20.010;2023-04-24T16:41:15;4.90;;;2.47;;
51174;SDS011;37240;50.104;20.010;2023-04-24T16:46:15;2.70;;;2.03;;
51174;SDS011;37240;50.104;20.010;2023-04-24T16:51:16;6.65;;;2.10;;
51174;SDS011;37240;50.104;20.010;2023-04-24T16:56:17;2.78;;;2.42;;
51174;SDS011;37240;50.104;20.010;2023-04-24T17:01:17;3.13;;;2.03;;
51174;SDS011;37240;50.104;20.010;2023-04-24T17:06:18;4.00;;;2.28;;
51174;SDS011;37240;50.104;20.010;2023-04-24T17:11:18;5.95;;;2.63;;
51174;SDS011;37240;50.104;20.010;2023-04-24T17:16:19;6.60;;;2.10;;
51174;SDS011;37240;50.104;20.010;2023-04-24T17:21:20;2.42;;;1.90;;
51174;SDS011;37240;50.104;20.010;2023-04-24T17:26:20;6.32;;;2.97;;
51174;SDS011;37240;50.104;20.010;2023-04-24T17:31:21;7.10;;;2.72;;
51174;SDS011;37240;50.104;20.010;2023-04-24T17:36:21;2.75;;;2.55;;
51174;SDS011;37240;50.104;20.010;2023-04-24T17:41:22;6.40;;;2.92;;
51174;SDS011;37240;50.104;20.010;2023-04-24T17:46:22;4.80;;;3.42;;
51174;SDS011;37240;50.104;20.010;2023-04-24T17:51:23;4.07;;;2.63;;
51174;SDS011;37240;50.104;20.010;2023-04-24T17:56:23;4.47;;;3.78;;
51174;SDS011;37240;50.104;20.010;2023-04-24T18:01:24;3.30;;;2.92;;
51174;SDS011;37240;50.104;20.010;2023-04-24T18:06:24;5.40;;;3.47;;
51174;SDS011;37240;50.104;20.010;2023-04-24T18:11:25;3.70;;;3.13;;
51174;SDS011;37240;50.104;20.010;2023-04-24T18:16:26;3.35;;;2.75;;
51174;SDS011;37240;50.104;20.010;2023-04-24T18:21:26;5.40;;;3.30;;
51174;SDS011;37240;50.104;20.010;2023-04-24T18:26:27;7.53;;;4.18;;
51174;SDS011;37240;50.104;20.010;2023-04-24T18:31:27;6.32;;;3.35;;
51174;SDS011;37240;50.104;20.010;2023-04-24T18:36:28;6.28;;;3.78;;
51174;SDS011;37240;50.104;20.010;2023-04-24T18:41:29;6.75;;;4.35;;
51174;SDS011;37240;50.104;20.010;2023-04-24T18:46:29;10.23;;;6.97;;
51174;SDS011;37240;50.104;20.010;2023-04-24T18:51:30;6.35;;;4.60;;
51174;SDS011;37240;50.104;20.010;2023-04-24T18:56:30;5.88;;;4.15;;
51174;SDS011;37240;50.104;20.010;2023-04-24T19:01:31;4.88;;;3.67;;
51174;SDS011;37240;50.104;20.010;2023-04-24T19:06:32;5.05;;;3.42;;
51174;SDS011;37240;50.104;20.010;2023-04-24T19:11:32;5.45;;;4.10;;
51174;SDS011;37240;50.104;20.010;2023-04-24T19:16:33;21.52;;;11.73;;
51174;SDS011;37240;50.104;20.010;2023-04-24T19:21:33;17.52;;;9.18;;
51174;SDS011;37240;50.104;20.010;2023-04-24T19:26:34;8.88;;;5.95;;
51174;SDS011;37240;50.104;20.010;2023-04-24T19:31:35;17.02;;;10.48;;
51174;SDS011;37240;50.104;20.010;2023-04-24T19:36:35;40.60;;;20.83;;
51174;SDS011;37240;50.104;20.010;2023-04-24T19:41:36;20.05;;;11.27;;
51174;SDS011;37240;50.104;20.010;2023-04-24T19:46:36;14.00;;;6.88;;
51174;SDS011;37240;50.104;20.010;2023-04-24T19:51:37;9.35;;;6.10;;
51174;SDS011;37240;50.104;20.010;2023-04-24T19:56:37;8.45;;;5.47;;
51174;SDS011;37240;50.104;20.010;2023-04-24T20:01:38;14.00;;;6.43;;
51174;SDS011;37240;50.104;20.010;2023-04-24T20:06:40;8.57;;;5.60;;
51174;SDS011;37240;50.104;20.010;2023-04-24T20:11:40;12.82;;;7.65;;
51174;SDS011;37240;50.104;20.010;2023-04-24T20:16:41;11.57;;;6.18;;
51174;SDS011;37240;50.104;20.010;2023-04-24T20:21:41;8.10;;;5.82;;
51174;SDS011;37240;50.104;20.010;2023-04-24T20:26:42;6.03;;;4.57;;
51174;SDS011;37240;50.104;20.010;2023-04-24T20:31:43;13.18;;;5.47;;
51174;SDS011;37240;50.104;20.010;2023-04-24T20:36:43;8.35;;;4.72;;
51174;SDS011;37240;50.104;20.010;2023-04-24T20:41:44;9.93;;;5.80;;
51174;SDS011;37240;50.104;20.010;2023-04-24T20:46:44;9.18;;;5.45;;
51174;SDS011;37240;50.104;20.010;2023-04-24T20:51:45;11.05;;;6.00;;
51174;SDS011;37240;50.104;20.010;2023-04-24T20:56:46;9.63;;;6.03;;
51174;SDS011;37240;50.104;20.010;2023-04-24T21:01:46;8.52;;;5.70;;
51174;SDS011;37240;50.104;20.010;2023-04-24T21:06:47;8.13;;;4.60;;
51174;SDS011;37240;50.104;20.010;2023-04-24T21:11:47;5.18;;;4.45;;
51174;SDS011;37240;50.104;20.010;2023-04-24T21:16:48;7.00;;;5.13;;
51174;SDS011;37240;50.104;20.010;2023-04-24T21:21:48;6.43;;;4.75;;
51174;SDS011;37240;50.104;20.010;2023-04-24T21:26:49;9.68;;;5.68;;
51174;SDS011;37240;50.104;20.010;2023-04-24T21:31:51;8.52;;;5.75;;
51174;SDS011;37240;50.104;20.010;2023-04-24T21:36:51;10.88;;;7.00;;
51174;SDS011;37240;50.104;20.010;2023-04-24T21:41:52;15.82;;;8.10;;
51174;SDS011;37240;50.104;20.010;2023-04-24T21:46:52;17.27;;;8.80;;
51174;SDS011;37240;50.104;20.010;2023-04-24T21:51:53;17.48;;;9.68;;
51174;SDS011;37240;50.104;20.010;2023-04-24T21:56:53;20.55;;;9.38;;
51174;SDS011;37240;50.104;20.010;2023-04-24T22:01:54;15.82;;;9.70;;
51174;SDS011;37240;50.104;20.010;2023-04-24T22:06:55;21.95;;;9.30;;
51174;SDS011;37240;50.104;20.010;2023-04-24T22:11:55;20.40;;;9.95;;
51174;SDS011;37240;50.104;20.010;2023-04-24T22:16:56;18.38;;;9.57;;
51174;SDS011;37240;50.104;20.010;2023-04-24T22:21:56;20.58;;;11.05;;
51174;SDS011;37240;50.104;20.010;2023-04-24T22:26:57;27.23;;;13.35;;
51174;SDS011;37240;50.104;20.010;2023-04-24T22:31:57;27.77;;;15.73;;
51174;SDS011;37240;50.104;20.010;2023-04-24T22:36:58;40.22;;;20.67;;
51174;SDS011;37240;50.104;20.010;2023-04-24T22:41:59;42.25;;;21.52;;
51174;SDS011;37240;50.104;20.010;2023-04-24T22:46:59;39.80;;;21.10;;
51174;SDS011;37240;50.104;20.010;2023-04-24T22:52:00;50.67;;;27.45;;
51174;SDS011;37240;50.104;20.010;2023-04-24T22:57:01;37.38;;;21.13;;
51174;SDS011;37240;50.104;20.010;2023-04-24T23:02:01;33.05;;;19.40;;
51174;SDS011;37240;50.104;20.010;2023-04-24T23:07:02;32.47;;;18.33;;
51174;SDS011;37240;50.104;20.010;2023-04-24T23:12:02;33.55;;;18.75;;
51174;SDS011;37240;50.104;20.010;2023-04-24T23:17:03;34.20;;;17.95;;
51174;SDS011;37240;50.104;20.010;2023-04-24T23:22:03;31.67;;;17.42;;
51174;SDS011;37240;50.104;20.010;2023-04-24T23:27:04;30.80;;;17.50;;
51174;SDS011;37240;50.104;20.010;2023-04-24T23:32:05;27.85;;;17.30;;
51174;SDS011;37240;50.104;20.010;2023-04-24T23:37:05;24.67;;;16.33;;
51174;SDS011;37240;50.104;20.010;2023-04-24T23:42:06;28.70;;;16.95;;
51174;SDS011;37240;50.104;20.010;2023-04-24T23:47:06;29.48;;;16.38;;
51174;SDS011;37240;50.104;20.010;2023-04-24T23:52:07;31.38;;;17.77;;
51174;SDS011;37240;50.104;20.010;2023-04-24T23:57:08;30.13;;;17.88;;
